createdAt,value
2018-08-22T00:01:37.854Z,2.90
2018-08-22T00:04:06.295Z,2.90
2018-08-22T00:06:34.836Z,2.80
2018-08-22T00:09:04.037Z,2.30
2018-08-22T00:11:32.281Z,2.50
2018-08-22T00:14:00.615Z,2.43
2018-08-22T00:16:28.931Z,2.33
2018-08-22T00:18:57.311Z,2.33
2018-08-22T00:21:25.813Z,2.50
2018-08-22T00:23:54.176Z,2.70
2018-08-22T00:26:22.478Z,2.60
2018-08-22T00:28:50.933Z,3.00
2018-08-22T00:31:19.391Z,2.67
2018-08-22T00:33:47.732Z,2.87
2018-08-22T00:36:16.031Z,2.67
2018-08-22T00:38:44.384Z,2.53
2018-08-22T00:41:12.713Z,2.30
2018-08-22T00:43:41.146Z,2.80
2018-08-22T00:46:09.579Z,3.03
2018-08-22T00:48:37.921Z,2.50
2018-08-22T00:51:06.305Z,2.80
2018-08-22T00:53:34.683Z,3.10
2018-08-22T00:56:03.089Z,2.67
2018-08-22T00:58:31.571Z,3.03
2018-08-22T01:00:59.955Z,2.93
2018-08-22T01:03:28.330Z,3.63
2018-08-22T01:05:56.672Z,3.00
2018-08-22T01:08:25.188Z,2.70
2018-08-22T01:10:53.543Z,3.07
2018-08-22T01:13:22.046Z,3.10
2018-08-22T01:15:50.477Z,3.03
2018-08-22T01:18:18.872Z,3.37
2018-08-22T01:20:47.297Z,3.17
2018-08-22T01:23:15.771Z,3.53
2018-08-22T01:25:44.273Z,3.23
2018-08-22T01:28:12.741Z,2.77
2018-08-22T01:30:41.142Z,2.93
2018-08-22T01:33:09.668Z,2.93
2018-08-22T01:35:38.051Z,2.80
2018-08-22T01:38:06.857Z,2.80
2018-08-22T01:40:35.163Z,4.23
2018-08-22T01:43:03.587Z,3.80
2018-08-22T01:45:32.183Z,3.20
2018-08-22T01:48:00.771Z,3.30
2018-08-22T01:50:29.251Z,3.40
2018-08-22T01:52:57.924Z,2.83
2018-08-22T01:55:26.413Z,2.97
2018-08-22T01:57:54.808Z,2.47
2018-08-22T02:00:23.234Z,2.60
2018-08-22T02:02:52.059Z,3.00
2018-08-22T02:05:20.525Z,2.90
2018-08-22T02:07:48.913Z,2.67
2018-08-22T02:10:17.241Z,3.33
2018-08-22T02:12:45.668Z,3.53
2018-08-22T02:15:14.165Z,2.70
2018-08-22T02:17:42.626Z,3.20
2018-08-22T02:20:11.107Z,3.40
2018-08-22T02:22:39.550Z,3.13
2018-08-22T02:25:07.980Z,3.50
2018-08-22T02:27:36.328Z,3.37
2018-08-22T02:30:04.741Z,3.30
2018-08-22T02:32:33.277Z,3.60
2018-08-22T02:35:01.663Z,4.03
2018-08-22T02:37:30.018Z,3.40
2018-08-22T02:39:58.606Z,3.40
2018-08-22T02:42:26.967Z,3.67
2018-08-22T02:44:55.332Z,3.20
2018-08-22T02:47:23.735Z,3.80
2018-08-22T02:49:52.223Z,3.53
2018-08-22T02:52:20.639Z,3.63
2018-08-22T02:54:49.082Z,3.60
2018-08-22T02:57:17.576Z,3.37
2018-08-22T02:59:46.075Z,3.77
2018-08-22T03:02:14.497Z,3.27
2018-08-22T03:04:43.775Z,3.30
2018-08-22T03:07:12.142Z,4.03
2018-08-22T03:09:40.571Z,3.90
2018-08-22T03:12:09.014Z,3.70
2018-08-22T03:14:37.409Z,3.73
2018-08-22T03:17:05.775Z,3.93
2018-08-22T03:19:34.152Z,3.37
2018-08-22T03:22:02.485Z,3.67
2018-08-22T03:24:30.887Z,4.20
2018-08-22T03:26:59.447Z,3.53
2018-08-22T03:29:27.808Z,3.13
2018-08-22T03:31:56.285Z,4.03
2018-08-22T03:34:24.670Z,3.60
2018-08-22T03:36:52.994Z,3.67
2018-08-22T03:39:21.538Z,4.33
2018-08-22T03:41:49.899Z,4.17
2018-08-22T03:44:18.522Z,4.20
2018-08-22T03:46:46.910Z,3.53
2018-08-22T03:49:15.311Z,4.47
2018-08-22T03:51:43.663Z,3.73
2018-08-22T03:54:12.152Z,4.10
2018-08-22T03:56:40.535Z,4.00
2018-08-22T03:59:09.183Z,4.17
2018-08-22T04:01:37.591Z,4.30
2018-08-22T04:04:06.020Z,4.17
2018-08-22T04:06:34.527Z,4.37
2018-08-22T04:09:04.714Z,4.97
2018-08-22T04:11:33.811Z,4.80
2018-08-22T04:14:02.363Z,5.50
2018-08-22T04:16:30.796Z,4.53
2018-08-22T04:18:59.330Z,4.53
2018-08-22T04:21:28.119Z,4.90
2018-08-22T04:23:56.593Z,5.40
2018-08-22T04:26:24.948Z,5.30
2018-08-22T04:28:53.422Z,4.90
2018-08-22T04:31:21.899Z,6.17
2018-08-22T04:33:50.442Z,4.90
2018-08-22T04:36:18.975Z,5.00
2018-08-22T04:38:48.069Z,4.00
2018-08-22T04:41:16.460Z,5.03
2018-08-22T04:43:44.956Z,4.77
2018-08-22T04:46:14.039Z,5.43
2018-08-22T04:48:42.447Z,4.97
2018-08-22T04:51:10.824Z,5.30
2018-08-22T04:53:39.262Z,5.40
2018-08-22T04:56:07.696Z,5.27
2018-08-22T04:58:36.131Z,5.50
2018-08-22T05:01:04.934Z,4.93
2018-08-22T05:03:33.578Z,5.00
2018-08-22T05:06:02.032Z,4.93
2018-08-22T05:08:31.281Z,5.07
2018-08-22T05:10:59.780Z,4.80
2018-08-22T05:13:28.539Z,4.90
2018-08-22T05:15:56.933Z,5.30
2018-08-22T05:18:25.414Z,5.23
2018-08-22T05:20:53.789Z,4.93
2018-08-22T05:23:22.155Z,5.70
2018-08-22T05:25:50.637Z,5.40
2018-08-22T05:28:19.006Z,4.90
2018-08-22T05:30:47.524Z,5.30
2018-08-22T05:33:16.077Z,4.70
2018-08-22T05:35:44.478Z,5.37
2018-08-22T05:38:12.837Z,5.33
2018-08-22T05:40:41.542Z,5.10
2018-08-22T05:43:09.978Z,4.60
2018-08-22T05:45:38.298Z,4.80
2018-08-22T05:48:06.687Z,4.63
2018-08-22T05:50:35.148Z,5.10
2018-08-22T05:53:04.091Z,4.90
2018-08-22T05:55:32.867Z,5.43
2018-08-22T05:58:01.862Z,4.90
2018-08-22T06:00:30.224Z,4.67
2018-08-22T06:02:58.981Z,5.20
2018-08-22T06:05:27.283Z,5.33
2018-08-22T06:07:55.694Z,4.90
2018-08-22T06:10:24.022Z,5.13
2018-08-22T06:12:52.354Z,5.30
2018-08-22T06:15:20.764Z,5.27
2018-08-22T06:17:49.224Z,4.50
2018-08-22T06:20:17.595Z,4.27
2018-08-22T06:22:46.696Z,4.23
2018-08-22T06:25:15.069Z,4.80
2018-08-22T06:27:43.446Z,4.93
2018-08-22T06:30:12.175Z,4.50
2018-08-22T06:32:41.012Z,4.63
2018-08-22T06:35:09.450Z,4.90
2018-08-22T06:37:37.828Z,4.77
2018-08-22T06:40:06.572Z,4.60
2018-08-22T06:42:34.989Z,4.20
2018-08-22T06:45:03.339Z,4.83
2018-08-22T06:47:31.799Z,4.80
2018-08-22T06:50:00.400Z,4.40
2018-08-22T06:52:28.881Z,3.93
2018-08-22T06:54:57.863Z,4.27
2018-08-22T06:57:26.410Z,3.90
2018-08-22T06:59:54.853Z,4.80
2018-08-22T07:02:23.255Z,3.87
2018-08-22T07:04:51.597Z,3.83
2018-08-22T07:07:20.063Z,3.90
2018-08-22T07:09:48.525Z,3.47
2018-08-22T07:12:16.874Z,3.27
2018-08-22T07:14:45.271Z,3.50
2018-08-22T07:17:13.781Z,3.57
2018-08-22T07:19:42.379Z,3.20
2018-08-22T07:22:10.854Z,2.90
2018-08-22T07:24:39.208Z,2.77
2018-08-22T07:27:07.618Z,2.50
2018-08-22T07:29:36.107Z,3.03
2018-08-22T07:32:04.505Z,2.50
2018-08-22T07:34:32.898Z,2.40
2018-08-22T07:37:01.326Z,2.37
2018-08-22T07:39:29.711Z,2.23
2018-08-22T07:41:58.139Z,2.40
2018-08-22T07:44:29.495Z,2.40
2018-08-22T07:46:58.122Z,2.60
2018-08-22T07:49:26.397Z,2.60
2018-08-22T07:51:55.647Z,1.90
2018-08-22T07:54:29.262Z,2.67
2018-08-22T07:56:58.008Z,2.23
2018-08-22T07:59:29.309Z,2.00
2018-08-22T08:01:57.809Z,2.37
2018-08-22T08:04:26.194Z,2.00
2018-08-22T08:06:54.619Z,2.20
2018-08-22T08:09:22.977Z,2.37
2018-08-22T08:11:51.424Z,2.50
2018-08-22T08:14:19.830Z,2.60
2018-08-22T08:16:48.456Z,1.90
2018-08-22T08:19:16.923Z,2.90
2018-08-22T08:21:45.512Z,1.87
2018-08-22T08:24:13.848Z,2.40
2018-08-22T08:26:42.203Z,2.20
2018-08-22T08:29:10.563Z,2.77
2018-08-22T08:31:39.225Z,2.17
2018-08-22T08:34:07.671Z,2.17
2018-08-22T08:36:36.042Z,2.08
2018-08-22T08:39:07.517Z,2.57
2018-08-22T08:41:36.012Z,2.52
2018-08-22T08:44:04.390Z,3.13
2018-08-22T08:46:33.107Z,1.95
2018-08-22T08:49:01.687Z,2.23
2018-08-22T08:51:30.445Z,2.50
2018-08-22T08:53:58.873Z,2.20
2018-08-22T08:56:27.280Z,2.00
2018-08-22T08:58:55.732Z,2.72
2018-08-22T09:01:24.585Z,2.00
2018-08-22T09:03:53.200Z,2.35
2018-08-22T09:06:21.640Z,2.70
2018-08-22T09:08:50.632Z,2.65
2018-08-22T09:11:18.964Z,2.10
2018-08-22T09:13:51.439Z,2.58
2018-08-22T09:16:19.765Z,2.35
2018-08-22T09:18:48.194Z,2.62
2018-08-22T09:21:16.740Z,2.87
2018-08-22T09:23:45.075Z,2.17
2018-08-22T09:26:13.404Z,2.33
2018-08-22T09:28:42.164Z,2.52
2018-08-22T09:31:10.869Z,2.77
2018-08-22T09:33:39.619Z,2.47
2018-08-22T09:36:08.266Z,2.40
2018-08-22T09:38:36.651Z,2.70
2018-08-22T09:41:05.254Z,2.83
2018-08-22T09:43:33.651Z,2.50
2018-08-22T09:46:02.558Z,2.87
2018-08-22T09:48:30.978Z,2.87
2018-08-22T09:50:59.405Z,3.35
2018-08-22T09:53:27.695Z,2.70
2018-08-22T09:55:56.114Z,3.20
2018-08-22T09:58:24.443Z,2.87
2018-08-22T10:00:57.095Z,2.75
2018-08-22T10:03:25.379Z,2.87
2018-08-22T10:05:53.792Z,2.42
2018-08-22T10:08:22.291Z,3.00
2018-08-22T10:10:50.945Z,2.75
2018-08-22T10:13:19.342Z,3.25
2018-08-22T10:15:47.837Z,3.20
2018-08-22T10:18:16.282Z,3.00
2018-08-22T10:20:45.227Z,2.60
2018-08-22T10:23:13.557Z,3.62
2018-08-22T10:25:41.969Z,3.42
2018-08-22T10:28:10.464Z,2.95
2018-08-22T10:30:38.988Z,2.50
2018-08-22T10:33:07.358Z,3.37
2018-08-22T10:35:36.114Z,2.57
2018-08-22T10:38:04.479Z,2.87
2018-08-22T10:40:32.852Z,3.17
2018-08-22T10:43:01.170Z,3.00
2018-08-22T10:45:29.582Z,2.72
2018-08-22T10:47:58.371Z,3.25
2018-08-22T10:50:26.704Z,3.52
2018-08-22T10:52:55.229Z,3.27
2018-08-22T10:55:23.679Z,3.40
2018-08-22T10:57:52.135Z,3.95
2018-08-22T11:00:20.643Z,4.10
2018-08-22T11:02:49.100Z,3.30
2018-08-22T11:05:17.528Z,3.77
2018-08-22T11:07:45.990Z,3.57
2018-08-22T11:10:14.552Z,3.40
2018-08-22T11:12:42.900Z,3.30
2018-08-22T11:15:11.535Z,3.60
2018-08-22T11:17:40.223Z,3.52
2018-08-22T11:20:08.775Z,3.50
2018-08-22T11:22:46.081Z,3.52
2018-08-22T11:25:23.316Z,3.40
2018-08-22T11:28:00.706Z,3.17
2018-08-22T11:30:37.874Z,3.37
2018-08-22T11:33:15.025Z,3.10
2018-08-22T11:35:42.322Z,3.00
2018-08-22T11:38:17.004Z,3.02
2018-08-22T11:40:45.640Z,3.08
2018-08-22T11:43:14.229Z,3.25
2018-08-22T11:45:42.780Z,2.90
2018-08-22T11:48:11.183Z,3.10
2018-08-22T11:50:39.549Z,2.80
2018-08-22T11:53:07.975Z,3.42
2018-08-22T11:55:36.399Z,2.75
2018-08-22T11:58:04.831Z,3.17
2018-08-22T12:00:33.186Z,3.58
2018-08-22T12:03:01.659Z,3.30
2018-08-22T12:05:30.026Z,3.45
2018-08-22T12:07:58.378Z,2.90
2018-08-22T12:10:31.016Z,3.50
2018-08-22T12:13:01.909Z,3.15
2018-08-22T12:15:30.456Z,3.22
2018-08-22T12:18:00.054Z,4.03
2018-08-22T12:20:29.350Z,3.00
2018-08-22T12:22:57.756Z,2.80
2018-08-22T12:25:26.191Z,2.98
2018-08-22T12:27:55.050Z,3.40
2018-08-22T12:30:23.532Z,3.22
2018-08-22T12:32:52.634Z,3.05
2018-08-22T12:35:21.771Z,3.42
2018-08-22T12:37:51.218Z,3.27
2018-08-22T12:40:19.691Z,3.27
2018-08-22T12:42:48.148Z,3.25
2018-08-22T12:45:17.387Z,3.00
2018-08-22T12:47:47.630Z,3.27
2018-08-22T12:50:16.076Z,2.67
2018-08-22T12:52:45.645Z,2.75
2018-08-22T12:55:15.143Z,2.70
2018-08-22T12:57:43.798Z,3.20
2018-08-22T13:00:12.556Z,3.42
2018-08-22T13:02:41.059Z,3.83
2018-08-22T13:05:10.468Z,3.70
2018-08-22T13:07:39.538Z,4.03
2018-08-22T13:10:08.155Z,3.77
2018-08-22T13:12:36.697Z,4.08
2018-08-22T13:15:06.144Z,3.20
2018-08-22T13:17:34.979Z,4.08
2018-08-22T13:20:03.371Z,4.28
2018-08-22T13:22:31.752Z,3.50
2018-08-22T13:25:00.341Z,3.60
2018-08-22T13:27:28.958Z,3.08
2018-08-22T13:29:58.169Z,3.40
2018-08-22T13:32:27.160Z,3.92
2018-08-22T13:34:56.109Z,3.87
2018-08-22T13:37:24.690Z,3.42
2018-08-22T13:39:53.531Z,3.90
2018-08-22T13:42:22.012Z,3.17
2018-08-22T13:44:50.249Z,3.10
2018-08-22T13:47:20.041Z,3.42
2018-08-22T13:49:48.357Z,3.70
2018-08-22T13:52:17.427Z,3.20
2018-08-22T13:54:46.052Z,3.92
2018-08-22T13:57:14.533Z,3.90
2018-08-22T13:59:43.184Z,3.70
2018-08-22T14:02:11.587Z,3.83
2018-08-22T14:04:40.133Z,3.22
2018-08-22T14:07:08.509Z,3.98
2018-08-22T14:09:36.973Z,3.80
2018-08-22T14:12:05.364Z,3.27
2018-08-22T14:14:33.734Z,4.05
2018-08-22T14:17:02.169Z,3.58
2018-08-22T14:19:31.789Z,3.77
2018-08-22T14:22:00.465Z,3.77
2018-08-22T14:24:29.607Z,4.13
2018-08-22T14:26:58.535Z,4.40
2018-08-22T14:29:26.895Z,6.00
2018-08-22T14:31:55.359Z,4.53
2018-08-22T14:34:23.803Z,4.27
2018-08-22T14:36:52.212Z,4.20
2018-08-22T14:39:20.688Z,4.43
2018-08-22T14:41:49.504Z,4.70
2018-08-22T14:44:18.096Z,4.13
2018-08-22T14:46:46.640Z,3.93
2018-08-22T14:49:15.077Z,4.07
2018-08-22T14:51:43.530Z,4.40
2018-08-22T14:54:12.038Z,3.93
2018-08-22T14:56:40.489Z,4.40
2018-08-22T14:59:08.863Z,4.00
2018-08-22T15:01:37.571Z,4.10
2018-08-22T15:04:06.313Z,3.83
2018-08-22T15:06:35.793Z,4.23
2018-08-22T15:09:09.063Z,4.27
2018-08-22T15:11:37.593Z,4.17
2018-08-22T15:14:06.456Z,4.30
2018-08-22T15:16:35.134Z,4.07
2018-08-22T15:19:04.794Z,4.20
2018-08-22T15:21:33.313Z,3.90
2018-08-22T15:24:01.862Z,3.43
2018-08-22T15:26:30.344Z,4.43
2018-08-22T15:28:58.740Z,3.87
2018-08-22T15:31:27.584Z,3.87
2018-08-22T15:33:56.222Z,4.67
2018-08-22T15:36:24.894Z,3.87
2018-08-22T15:38:53.309Z,4.33
2018-08-22T15:41:21.799Z,3.73
2018-08-22T15:43:50.171Z,3.73
2018-08-22T15:46:18.655Z,4.30
2018-08-22T15:48:47.075Z,4.20
2018-08-22T15:51:15.436Z,4.50
2018-08-22T15:53:45.012Z,4.80
2018-08-22T15:56:14.520Z,4.00
2018-08-22T15:58:43.142Z,4.43
2018-08-22T16:01:11.921Z,4.00
2018-08-22T16:03:40.291Z,4.47
2018-08-22T16:06:08.711Z,4.90
2018-08-22T16:08:38.491Z,4.67
2018-08-22T16:11:07.657Z,4.30
2018-08-22T16:13:37.856Z,4.20
2018-08-22T16:16:06.333Z,5.17
2018-08-22T16:18:35.025Z,4.60
2018-08-22T16:21:06.145Z,4.90
2018-08-22T16:23:35.656Z,4.70
2018-08-22T16:26:04.997Z,4.27
2018-08-22T16:28:43.709Z,4.50
2018-08-22T16:31:14.355Z,4.53
2018-08-22T16:33:44.799Z,4.30
2018-08-22T16:36:18.283Z,4.20
2018-08-22T16:38:48.925Z,4.70
2018-08-22T16:41:20.599Z,4.30
2018-08-22T16:43:51.411Z,5.50
2018-08-22T16:49:07.496Z,5.30
2018-08-22T16:51:37.095Z,4.90
2018-08-22T16:54:09.612Z,4.63
2018-08-22T16:56:38.481Z,4.97
2018-08-22T16:59:12.191Z,4.87
2018-08-22T17:01:42.854Z,5.13
2018-08-22T17:04:12.374Z,5.87
2018-08-22T17:06:41.398Z,5.20
2018-08-22T17:09:10.854Z,5.60
2018-08-22T17:11:40.748Z,5.93
2018-08-22T17:14:09.227Z,6.00
2018-08-22T17:16:38.122Z,5.70
2018-08-22T17:19:07.524Z,6.10
2018-08-22T17:21:36.092Z,6.13
2018-08-22T17:24:06.210Z,6.37
2018-08-22T17:26:35.435Z,6.57
2018-08-22T17:29:03.932Z,6.40
2018-08-22T17:31:33.140Z,7.03
2018-08-22T17:34:03.738Z,7.60
2018-08-22T17:36:32.772Z,6.77
2018-08-22T17:39:03.669Z,7.70
2018-08-22T17:41:32.336Z,6.60
2018-08-22T17:44:04.259Z,7.40
2018-08-22T17:46:34.172Z,7.07
2018-08-22T17:49:03.200Z,7.43
2018-08-22T17:51:39.090Z,7.77
2018-08-22T17:54:07.892Z,7.77
2018-08-22T17:56:36.387Z,6.50
2018-08-22T17:59:05.377Z,7.13
2018-08-22T18:01:34.032Z,7.57
2018-08-22T18:04:02.462Z,7.57
2018-08-22T18:06:32.751Z,8.50
2018-08-22T18:09:02.078Z,8.20
2018-08-22T18:11:30.720Z,8.30
2018-08-22T18:14:00.399Z,8.10
2018-08-22T18:16:28.807Z,8.37
2018-08-22T18:18:58.627Z,8.50
2018-08-22T18:21:34.273Z,9.03
2018-08-22T18:24:04.040Z,8.87
2018-08-22T18:26:32.420Z,9.63
2018-08-22T18:29:01.841Z,9.10
2018-08-22T18:31:31.302Z,9.90
2018-08-22T18:34:02.190Z,10.50
2018-08-22T18:36:31.900Z,10.80
2018-08-22T18:39:09.304Z,11.10
2018-08-22T18:41:38.179Z,10.90
2018-08-22T18:44:06.917Z,13.60
2018-08-22T18:46:35.477Z,13.50
2018-08-22T18:49:04.883Z,14.63
2018-08-22T18:51:33.861Z,12.40
2018-08-22T18:54:03.965Z,12.97
2018-08-22T18:56:32.608Z,12.80
2018-08-22T18:59:09.841Z,12.73
2018-08-22T19:01:38.290Z,12.93
2018-08-22T19:04:07.717Z,12.63
2018-08-22T19:06:36.418Z,14.10
2018-08-22T19:09:06.436Z,14.60
2018-08-22T19:11:34.996Z,14.50
2018-08-22T19:14:04.220Z,14.80
2018-08-22T19:16:32.721Z,14.20
2018-08-22T19:19:01.300Z,16.23
2018-08-22T19:21:29.764Z,16.10
2018-08-22T19:24:03.344Z,18.07
2018-08-22T19:26:32.596Z,17.10
2018-08-22T19:29:03.148Z,17.83
2018-08-22T19:31:32.052Z,19.40
2018-08-22T19:34:01.868Z,19.73
2018-08-22T19:36:31.295Z,18.57
2018-08-22T19:38:59.772Z,19.43
2018-08-22T19:41:32.350Z,18.90
2018-08-22T19:44:00.902Z,20.33
2018-08-22T19:46:30.135Z,22.10
2018-08-22T19:49:00.065Z,21.07
2018-08-22T19:51:28.778Z,20.80
2018-08-22T19:54:01.948Z,20.03
2018-08-22T19:56:31.662Z,21.97
2018-08-22T19:59:00.615Z,22.37
2018-08-22T20:01:34.250Z,21.10
2018-08-22T20:04:02.666Z,21.37
2018-08-22T20:06:31.288Z,22.80
2018-08-22T20:09:00.607Z,24.40
2018-08-22T20:11:31.713Z,25.43
2018-08-22T20:14:02.054Z,27.17
2018-08-22T20:16:30.707Z,27.90
2018-08-22T20:19:01.479Z,29.77
2018-08-22T20:21:32.165Z,27.87
2018-08-22T20:24:01.861Z,29.47
2018-08-22T20:26:30.731Z,27.67
2018-08-22T20:29:00.574Z,29.23
2018-08-22T20:31:30.635Z,26.93
2018-08-22T20:34:02.858Z,28.87
2018-08-22T20:36:32.010Z,28.27
2018-08-22T20:39:05.077Z,30.90
2018-08-22T20:41:33.855Z,31.10
2018-08-22T20:44:02.824Z,30.73
2018-08-22T20:46:31.414Z,31.00
2018-08-22T20:49:00.246Z,33.57
2018-08-22T20:51:30.024Z,31.37
2018-08-22T20:54:02.647Z,30.00
2018-08-22T20:56:32.831Z,30.10
2018-08-22T20:59:01.456Z,31.60
2018-08-22T21:01:29.986Z,31.50
2018-08-22T21:03:58.436Z,34.60
2018-08-22T21:06:26.904Z,31.87
2018-08-22T21:08:55.454Z,30.17
2018-08-22T21:11:23.998Z,34.40
2018-08-22T21:13:53.041Z,31.90
2018-08-22T21:16:22.528Z,32.97
2018-08-22T21:18:52.024Z,33.90
2018-08-22T21:21:23.732Z,32.60
2018-08-22T21:23:52.635Z,33.87
2018-08-22T21:26:34.890Z,35.40
2018-08-22T21:29:03.650Z,31.90
2018-08-22T21:31:32.604Z,34.97
2018-08-22T21:34:07.278Z,34.60
2018-08-22T21:36:37.116Z,34.63
2018-08-22T21:39:12.371Z,35.20
2018-08-22T21:41:42.208Z,35.47
2018-08-22T21:44:14.834Z,35.40
2018-08-22T21:46:43.304Z,36.70
2018-08-22T21:49:13.164Z,34.37
2018-08-22T21:51:42.665Z,38.20
2018-08-22T21:54:13.582Z,38.03
2018-08-22T21:56:42.198Z,33.77
2018-08-22T21:59:11.683Z,34.63
2018-08-22T22:01:46.044Z,36.67
2018-08-22T22:04:18.324Z,35.73
2018-08-22T22:06:47.212Z,33.00
2018-08-22T22:09:16.687Z,36.47
2018-08-22T22:11:45.882Z,35.97
2018-08-22T22:14:19.476Z,38.47
2018-08-22T22:16:48.077Z,39.13
2018-08-22T22:19:16.681Z,39.47
2018-08-22T22:21:45.122Z,38.80
2018-08-22T22:24:13.660Z,38.93
2018-08-22T22:26:42.153Z,37.37
2018-08-22T22:29:10.723Z,38.67
2018-08-22T22:31:39.205Z,41.23
2018-08-22T22:34:09.992Z,38.77
2018-08-22T22:36:38.476Z,38.60
2018-08-22T22:39:15.656Z,41.10
2018-08-22T22:41:44.647Z,38.20
2018-08-22T22:44:13.309Z,42.23
2018-08-22T22:46:41.851Z,44.47
2018-08-22T22:49:10.554Z,43.87
2018-08-22T22:51:38.969Z,43.87
2018-08-22T22:54:07.580Z,42.87
2018-08-22T22:56:36.348Z,43.03
2018-08-22T22:59:10.092Z,43.00
2018-08-22T23:01:38.603Z,42.77
2018-08-22T23:04:07.426Z,45.43
2018-08-22T23:06:35.852Z,43.77
2018-08-22T23:09:07.061Z,45.63
2018-08-22T23:11:35.746Z,43.10
2018-08-22T23:14:04.274Z,44.07
2018-08-22T23:16:37.014Z,43.60
2018-08-22T23:19:05.827Z,42.80
2018-08-22T23:21:36.644Z,43.80
2018-08-22T23:24:14.107Z,44.63
2018-08-22T23:26:42.722Z,44.13
2018-08-22T23:29:11.288Z,45.67
2018-08-22T23:31:40.085Z,42.30
2018-08-22T23:34:08.773Z,44.50
2018-08-22T23:36:37.255Z,45.50
2018-08-22T23:39:07.553Z,46.87
2018-08-22T23:41:36.168Z,45.80
2018-08-22T23:44:04.720Z,44.40
2018-08-22T23:46:33.638Z,45.20
2018-08-22T23:49:02.264Z,46.63
2018-08-22T23:51:30.713Z,44.10
2018-08-22T23:54:00.408Z,45.80
2018-08-22T23:56:30.435Z,45.73
2018-08-22T23:59:00.563Z,45.17
